Time;durP1;ratioP1;P1;durP2;ratioP2;P2;SDS_P1;SDS_P2;PMS_P1;PMS_P2;Temp;Humidity;BMP_temperature;BMP_pressure;BME280_temperature;BME280_humidity;BME280_pressure;Samples;Min_cycle;Max_cycle;Signal;HPM_P1;HPM_P2
2024/01/08 00:01:06;;;;;;;9.85;4.93;;;;;;;;;;5087030;27;20138;-66
2024/01/08 00:03:33;;;;;;;10.15;4.72;;;;;;;;;;5097546;27;20066;-66
2024/01/08 00:05:59;;;;;;;8.35;4.63;;;;;;;;;;5102311;27;20142;-66
2024/01/08 00:08:25;;;;;;;7.82;4.25;;;;;;;;;;5116334;27;20482;-66
2024/01/08 00:10:51;;;;;;;8.88;4.72;;;;;;;;;;5119674;27;20057;-66
2024/01/08 00:13:18;;;;;;;10.35;4.55;;;;;;;;;;5096472;27;20103;-66
2024/01/08 00:15:44;;;;;;;8.30;4.10;;;;;;;;;;5097138;27;20046;-66
2024/01/08 00:18:10;;;;;;;9.30;4.05;;;;;;;;;;5096716;27;20045;-66
2024/01/08 00:20:36;;;;;;;12.57;5.15;;;;;;;;;;5098071;27;20043;-66
2024/01/08 00:23:03;;;;;;;10.38;4.53;;;;;;;;;;5118054;27;20039;-66
2024/01/08 00:25:29;;;;;;;9.50;4.40;;;;;;;;;;5098812;27;20149;-66
2024/01/08 00:27:55;;;;;;;9.98;5.15;;;;;;;;;;5116110;27;20521;-66
2024/01/08 00:30:22;;;;;;;7.82;4.00;;;;;;;;;;5097527;27;20054;-66
2024/01/08 00:32:48;;;;;;;12.02;4.95;;;;;;;;;;5098730;27;21285;-66
2024/01/08 00:35:14;;;;;;;8.95;4.38;;;;;;;;;;5096039;27;20035;-66
2024/01/08 00:37:41;;;;;;;7.10;4.07;;;;;;;;;;5095486;28;20487;-66
2024/01/08 00:40:09;;;;;;;9.43;4.88;;;;;;;;;;5095044;27;20043;-66
2024/01/08 00:42:36;;;;;;;6.65;3.92;;;;;;;;;;5117513;27;20054;-66
2024/01/08 00:45:03;;;;;;;9.68;4.53;;;;;;;;;;5097120;27;20059;-66
2024/01/08 00:47:29;;;;;;;9.10;4.65;;;;;;;;;;5115786;27;20039;-66
2024/01/08 00:49:55;;;;;;;7.40;3.97;;;;;;;;;;5115922;27;20073;-66
2024/01/08 00:52:21;;;;;;;8.88;4.80;;;;;;;;;;5114670;27;20043;-66
2024/01/08 00:54:48;;;;;;;8.32;4.25;;;;;;;;;;5096094;27;20054;-66
2024/01/08 00:57:14;;;;;;;10.23;4.95;;;;;;;;;;5096664;27;20057;-66
2024/01/08 00:59:40;;;;;;;9.13;4.40;;;;;;;;;;5115766;27;20069;-66
2024/01/08 01:02:06;;;;;;;10.10;4.10;;;;;;;;;;5117101;27;20067;-66
2024/01/08 01:04:32;;;;;;;10.32;4.47;;;;;;;;;;5098657;27;20039;-66
2024/01/08 01:06:58;;;;;;;8.80;4.22;;;;;;;;;;5098714;28;20036;-66
2024/01/08 01:09:25;;;;;;;10.05;4.10;;;;;;;;;;5093825;27;20862;-66
2024/01/08 01:11:51;;;;;;;9.00;4.53;;;;;;;;;;5112640;27;20108;-66
2024/01/08 01:14:17;;;;;;;9.23;3.55;;;;;;;;;;5096742;27;20122;-66
2024/01/08 01:16:44;;;;;;;12.35;4.50;;;;;;;;;;5112244;27;20096;-66
2024/01/08 01:19:10;;;;;;;9.80;3.92;;;;;;;;;;5115417;27;20039;-66
2024/01/08 01:21:36;;;;;;;10.32;4.50;;;;;;;;;;5115833;27;20047;-66
2024/01/08 01:24:04;;;;;;;12.05;4.93;;;;;;;;;;5119620;27;20463;-66
2024/01/08 01:26:31;;;;;;;7.85;4.07;;;;;;;;;;5117555;27;20126;-66
2024/01/08 01:28:57;;;;;;;8.10;3.80;;;;;;;;;;5115100;27;20042;-66
2024/01/08 01:31:23;;;;;;;9.65;5.13;;;;;;;;;;5093717;27;20052;-66
2024/01/08 01:33:49;;;;;;;8.38;4.05;;;;;;;;;;5112012;27;20058;-66
2024/01/08 01:36:16;;;;;;;7.88;3.88;;;;;;;;;;5096452;27;20086;-66
2024/01/08 01:38:42;;;;;;;9.25;4.40;;;;;;;;;;5113512;27;20042;-66
2024/01/08 01:41:08;;;;;;;8.05;4.05;;;;;;;;;;5115851;27;20482;-66
2024/01/08 01:43:34;;;;;;;8.57;3.90;;;;;;;;;;5116665;27;20373;-66
2024/01/08 01:46:04;;;;;;;11.90;4.15;;;;;;;;;;5123487;27;20118;-66
2024/01/08 01:48:30;;;;;;;10.00;4.13;;;;;;;;;;5118833;27;20252;-66
2024/01/08 01:50:57;;;;;;;6.30;3.17;;;;;;;;;;5100156;27;20363;-66
2024/01/08 01:53:24;;;;;;;11.02;3.97;;;;;;;;;;5097626;28;20043;-66
2024/01/08 01:55:50;;;;;;;10.38;4.78;;;;;;;;;;5119161;28;20394;-66
2024/01/08 01:58:17;;;;;;;8.13;3.60;;;;;;;;;;5119000;28;20035;-66
2024/01/08 02:00:43;;;;;;;9.82;4.45;;;;;;;;;;5122875;28;20147;-66
2024/01/08 02:03:10;;;;;;;8.38;4.35;;;;;;;;;;5097476;28;20383;-66
2024/01/08 02:05:36;;;;;;;10.88;4.45;;;;;;;;;;5119408;28;20130;-66
2024/01/08 02:08:03;;;;;;;8.60;4.55;;;;;;;;;;5122874;27;20371;-66
2024/01/08 02:10:29;;;;;;;10.73;4.70;;;;;;;;;;5104412;27;20798;-66
2024/01/08 02:12:56;;;;;;;11.68;5.72;;;;;;;;;;5122320;27;20053;-66
2024/01/08 02:15:22;;;;;;;10.75;4.18;;;;;;;;;;5122407;27;20350;-66
2024/01/08 02:17:48;;;;;;;8.63;4.15;;;;;;;;;;5125994;27;20111;-66
2024/01/08 02:20:14;;;;;;;9.88;4.43;;;;;;;;;;5104790;27;20107;-66
2024/01/08 02:22:42;;;;;;;9.23;4.63;;;;;;;;;;5100905;27;20079;-66
2024/01/08 02:25:08;;;;;;;7.32;4.20;;;;;;;;;;5108107;27;20047;-66
2024/01/08 02:27:35;;;;;;;10.82;4.40;;;;;;;;;;5099882;27;20127;-66
2024/01/08 02:30:01;;;;;;;8.18;4.22;;;;;;;;;;5107122;27;20182;-66
2024/01/08 02:32:27;;;;;;;9.82;4.38;;;;;;;;;;5122310;27;20058;-66
2024/01/08 02:34:53;;;;;;;9.30;4.50;;;;;;;;;;5116566;27;20067;-66
2024/01/08 02:37:20;;;;;;;9.65;5.57;;;;;;;;;;5121719;27;20181;-66
2024/01/08 02:39:46;;;;;;;9.98;4.38;;;;;;;;;;5121124;27;20134;-66
2024/01/08 02:42:13;;;;;;;9.07;4.32;;;;;;;;;;5120415;27;20042;-66
2024/01/08 02:44:40;;;;;;;13.48;5.18;;;;;;;;;;5102131;27;20127;-66
2024/01/08 02:47:06;;;;;;;11.05;5.25;;;;;;;;;;5121002;27;20070;-66
2024/01/08 02:49:32;;;;;;;9.65;4.60;;;;;;;;;;5098797;27;20035;-66
2024/01/08 02:51:59;;;;;;;9.77;4.78;;;;;;;;;;5119727;27;20486;-66
2024/01/08 02:54:25;;;;;;;9.20;4.32;;;;;;;;;;5122247;27;20474;-66
2024/01/08 02:56:51;;;;;;;7.95;4.50;;;;;;;;;;5121885;27;20068;-66
2024/01/08 02:59:17;;;;;;;8.82;4.05;;;;;;;;;;5100657;27;20486;-66
2024/01/08 03:01:43;;;;;;;8.50;4.20;;;;;;;;;;5121500;27;20075;-66
2024/01/08 03:04:11;;;;;;;7.90;4.32;;;;;;;;;;5099272;27;20533;-66
2024/01/08 03:06:38;;;;;;;8.90;4.43;;;;;;;;;;5098669;27;20406;-66
2024/01/08 03:09:04;;;;;;;8.50;4.43;;;;;;;;;;5098486;27;20051;-66
2024/01/08 03:11:30;;;;;;;8.35;4.82;;;;;;;;;;5102640;27;20126;-66
2024/01/08 03:13:56;;;;;;;11.93;6.45;;;;;;;;;;5119055;27;20447;-66
2024/01/08 03:16:22;;;;;;;7.93;4.43;;;;;;;;;;5119191;27;20066;-66
2024/01/08 03:18:48;;;;;;;9.43;4.60;;;;;;;;;;5097585;27;20424;-66
2024/01/08 03:21:15;;;;;;;9.38;4.75;;;;;;;;;;5118934;27;20151;-66
2024/01/08 03:23:41;;;;;;;8.25;4.18;;;;;;;;;;5116616;27;20035;-66
2024/01/08 03:26:07;;;;;;;9.32;5.28;;;;;;;;;;5102408;27;20700;-66
2024/01/08 03:28:33;;;;;;;7.57;4.57;;;;;;;;;;5120432;27;20039;-66
2024/01/08 03:31:02;;;;;;;8.57;4.05;;;;;;;;;;5092827;28;20414;-66
2024/01/08 03:33:28;;;;;;;8.93;4.30;;;;;;;;;;5097532;28;20077;-66
2024/01/08 03:35:55;;;;;;;10.13;4.78;;;;;;;;;;5099626;28;20118;-66
2024/01/08 03:38:21;;;;;;;8.02;4.40;;;;;;;;;;5086688;28;20051;-66
2024/01/08 03:40:47;;;;;;;7.95;4.95;;;;;;;;;;5098339;28;20111;-66
2024/01/08 03:43:13;;;;;;;10.88;4.95;;;;;;;;;;5086371;28;20054;-66
2024/01/08 03:45:39;;;;;;;10.38;6.20;;;;;;;;;;5087302;28;20121;-66
2024/01/08 03:48:06;;;;;;;8.82;4.60;;;;;;;;;;5099705;28;20062;-66
2024/01/08 03:50:33;;;;;;;10.50;5.20;;;;;;;;;;5097702;28;20142;-66
2024/01/08 03:52:59;;;;;;;10.20;5.38;;;;;;;;;;5099186;28;20112;-66
2024/01/08 03:55:25;;;;;;;9.23;5.18;;;;;;;;;;5099297;28;20035;-66
2024/01/08 03:57:51;;;;;;;9.63;5.50;;;;;;;;;;5084548;28;20047;-66
2024/01/08 04:00:18;;;;;;;10.32;5.50;;;;;;;;;;5089867;28;20043;-66
2024/01/08 04:02:44;;;;;;;10.07;5.00;;;;;;;;;;5097596;28;20126;-66
2024/01/08 04:05:11;;;;;;;12.05;5.72;;;;;;;;;;5098931;28;20039;-66
2024/01/08 04:07:38;;;;;;;10.68;5.35;;;;;;;;;;5090928;28;20166;-66
2024/01/08 04:10:05;;;;;;;9.07;4.95;;;;;;;;;;5086750;28;20264;-66
2024/01/08 04:12:31;;;;;;;11.30;5.53;;;;;;;;;;5086529;28;20508;-66
2024/01/08 04:14:58;;;;;;;9.20;5.15;;;;;;;;;;5096971;28;20047;-66
2024/01/08 04:17:26;;;;;;;13.50;5.30;;;;;;;;;;5091050;28;20441;-66
2024/01/08 04:19:52;;;;;;;10.30;5.78;;;;;;;;;;5094657;28;20160;-66
2024/01/08 04:22:18;;;;;;;11.07;5.38;;;;;;;;;;5088116;28;20050;-66
2024/01/08 04:24:45;;;;;;;12.45;5.55;;;;;;;;;;5089185;28;20052;-66
2024/01/08 04:27:11;;;;;;;9.45;5.38;;;;;;;;;;5086600;28;20124;-66
2024/01/08 04:29:37;;;;;;;10.98;6.20;;;;;;;;;;5095711;28;20399;-66
2024/01/08 04:32:03;;;;;;;10.80;5.43;;;;;;;;;;5085807;28;20486;-66
2024/01/08 04:34:30;;;;;;;10.93;5.75;;;;;;;;;;5100329;28;20051;-66
2024/01/08 04:36:56;;;;;;;10.43;5.43;;;;;;;;;;5095616;28;20127;-66
2024/01/08 04:39:22;;;;;;;12.93;6.28;;;;;;;;;;5070021;28;20058;-66
2024/01/08 04:41:48;;;;;;;11.68;6.13;;;;;;;;;;5086700;28;21964;-66
2024/01/08 04:44:14;;;;;;;12.25;5.88;;;;;;;;;;5096774;28;20605;-66
2024/01/08 04:46:43;;;;;;;10.35;5.22;;;;;;;;;;5085421;28;20050;-66
2024/01/08 04:49:10;;;;;;;12.82;5.97;;;;;;;;;;5101966;28;20130;-66
2024/01/08 04:51:36;;;;;;;12.18;5.30;;;;;;;;;;5105820;28;20465;-66
2024/01/08 04:54:04;;;;;;;10.60;5.78;;;;;;;;;;5102812;28;20070;-66
2024/01/08 04:56:30;;;;;;;12.93;5.68;;;;;;;;;;5101583;28;20040;-66
2024/01/08 04:58:56;;;;;;;12.95;5.40;;;;;;;;;;5092300;28;20100;-66
2024/01/08 05:01:22;;;;;;;9.35;4.78;;;;;;;;;;5101324;28;20735;-66
2024/01/08 05:03:49;;;;;;;10.07;5.05;;;;;;;;;;5097622;28;20036;-66
2024/01/08 05:06:15;;;;;;;9.93;4.45;;;;;;;;;;5092881;28;20079;-66
2024/01/08 05:08:41;;;;;;;9.02;4.00;;;;;;;;;;5091373;28;20119;-66
2024/01/08 05:11:08;;;;;;;12.75;3.58;;;;;;;;;;5087868;28;20120;-66
2024/01/08 05:13:34;;;;;;;7.13;3.50;;;;;;;;;;5095546;28;20035;-66
2024/01/08 05:16:01;;;;;;;8.57;3.42;;;;;;;;;;5098941;28;20135;-66
2024/01/08 05:18:27;;;;;;;7.35;3.85;;;;;;;;;;5102122;28;20521;-66
2024/01/08 05:20:54;;;;;;;9.50;3.45;;;;;;;;;;5091660;28;20040;-66
2024/01/08 05:23:20;;;;;;;10.85;3.10;;;;;;;;;;5096491;28;20462;-66
2024/01/08 05:25:47;;;;;;;10.57;3.35;;;;;;;;;;5099184;28;20063;-66
2024/01/08 05:28:13;;;;;;;6.95;3.38;;;;;;;;;;5101626;28;20054;-66
2024/01/08 05:30:39;;;;;;;7.55;3.65;;;;;;;;;;5096037;27;20199;-66
2024/01/08 05:33:05;;;;;;;11.38;3.53;;;;;;;;;;5100908;27;20031;-66
2024/01/08 05:35:33;;;;;;;11.70;4.45;;;;;;;;;;5104945;27;20146;-67
2024/01/08 05:37:59;;;;;;;13.52;4.03;;;;;;;;;;5097380;27;20162;-66
2024/01/08 05:40:25;;;;;;;12.40;4.32;;;;;;;;;;5115981;27;20108;-66
2024/01/08 05:42:52;;;;;;;7.70;3.55;;;;;;;;;;5095145;27;20139;-66
2024/01/08 05:45:18;;;;;;;8.20;3.28;;;;;;;;;;5115982;27;20377;-66
2024/01/08 05:47:45;;;;;;;10.57;4.50;;;;;;;;;;5095480;28;20073;-66
2024/01/08 05:50:11;;;;;;;7.85;3.58;;;;;;;;;;5116142;27;20046;-66
2024/01/08 05:52:37;;;;;;;11.38;3.80;;;;;;;;;;5098526;28;20092;-66
2024/01/08 05:55:04;;;;;;;7.03;3.50;;;;;;;;;;5098702;28;20127;-66
2024/01/08 05:57:30;;;;;;;7.07;3.45;;;;;;;;;;5111802;28;20047;-66
2024/01/08 05:59:56;;;;;;;7.18;3.55;;;;;;;;;;5114665;28;20096;-66
2024/01/08 06:02:22;;;;;;;8.07;4.00;;;;;;;;;;5097394;28;20047;-66
2024/01/08 06:04:48;;;;;;;12.00;4.15;;;;;;;;;;5115613;28;20039;-66
2024/01/08 06:07:15;;;;;;;6.32;3.42;;;;;;;;;;5098263;28;20080;-66
2024/01/08 06:09:41;;;;;;;9.55;3.75;;;;;;;;;;5099514;28;20880;-66
2024/01/08 06:12:07;;;;;;;6.63;3.30;;;;;;;;;;5095813;28;20051;-66
2024/01/08 06:14:34;;;;;;;7.70;3.50;;;;;;;;;;5113437;28;20195;-66
2024/01/08 06:17:00;;;;;;;10.68;4.05;;;;;;;;;;5097920;28;20042;-66
2024/01/08 06:19:26;;;;;;;8.88;4.43;;;;;;;;;;5113207;28;20051;-66
2024/01/08 06:21:53;;;;;;;9.77;3.35;;;;;;;;;;5116139;28;20095;-66
2024/01/08 06:24:19;;;;;;;6.97;3.28;;;;;;;;;;5095878;28;20050;-67
2024/01/08 06:26:45;;;;;;;8.73;4.13;;;;;;;;;;5098770;28;20514;-66
2024/01/08 06:29:11;;;;;;;7.57;4.10;;;;;;;;;;5083767;28;20207;-66
2024/01/08 06:31:37;;;;;;;10.52;4.18;;;;;;;;;;5101748;28;20051;-66
2024/01/08 06:34:04;;;;;;;10.90;5.13;;;;;;;;;;5100404;28;20458;-66
2024/01/08 06:36:30;;;;;;;12.27;3.97;;;;;;;;;;5083568;28;20111;-65
2024/01/08 06:38:56;;;;;;;8.70;3.47;;;;;;;;;;5085241;28;20128;-65
2024/01/08 06:41:24;;;;;;;9.05;4.35;;;;;;;;;;5086326;28;20119;-65
2024/01/08 06:43:50;;;;;;;11.07;4.32;;;;;;;;;;5084781;28;20422;-65
2024/01/08 06:46:18;;;;;;;8.05;4.10;;;;;;;;;;5084019;28;20058;-65
2024/01/08 06:48:44;;;;;;;7.22;3.58;;;;;;;;;;5084957;28;20074;-66
2024/01/08 06:51:11;;;;;;;8.27;4.15;;;;;;;;;;5084512;28;20044;-65
2024/01/08 06:53:37;;;;;;;9.25;4.07;;;;;;;;;;5103752;28;20071;-65
2024/01/08 06:56:04;;;;;;;9.45;3.55;;;;;;;;;;5090722;28;20118;-66
2024/01/08 06:58:30;;;;;;;6.82;3.40;;;;;;;;;;5090717;28;20522;-66
2024/01/08 07:00:56;;;;;;;8.95;4.05;;;;;;;;;;5101031;28;20096;-65
2024/01/08 07:03:22;;;;;;;8.38;4.32;;;;;;;;;;5086757;28;20123;-65
2024/01/08 07:05:48;;;;;;;9.23;3.67;;;;;;;;;;5087978;28;20374;-67
2024/01/08 07:08:14;;;;;;;7.90;4.00;;;;;;;;;;5087139;28;20044;-65
2024/01/08 07:10:41;;;;;;;6.47;3.72;;;;;;;;;;5106104;28;20051;-65
2024/01/08 07:13:07;;;;;;;7.93;4.50;;;;;;;;;;5106546;28;20374;-65
2024/01/08 07:15:39;;;;;;;13.35;3.97;;;;;;;;;;5107371;28;20100;-65
2024/01/08 07:18:05;;;;;;;10.57;3.40;;;;;;;;;;5107729;28;20064;-65
2024/01/08 07:20:32;;;;;;;9.65;3.80;;;;;;;;;;5090024;28;20062;-65
2024/01/08 07:22:58;;;;;;;10.25;3.92;;;;;;;;;;5085202;28;20051;-73
2024/01/08 07:25:24;;;;;;;6.93;2.80;;;;;;;;;;5090200;28;20067;-72
2024/01/08 07:27:50;;;;;;;6.32;3.55;;;;;;;;;;5088589;28;20134;-67
2024/01/08 07:30:18;;;;;;;9.45;3.97;;;;;;;;;;5108921;27;20494;-65
2024/01/08 07:32:44;;;;;;;10.48;3.85;;;;;;;;;;5125812;27;20035;-65
2024/01/08 07:35:11;;;;;;;10.25;3.40;;;;;;;;;;5124318;27;20035;-69
2024/01/08 07:37:38;;;;;;;12.73;3.90;;;;;;;;;;5105544;27;20044;-65
2024/01/08 07:40:05;;;;;;;7.78;3.67;;;;;;;;;;5123050;27;20079;-76
2024/01/08 07:42:31;;;;;;;7.70;3.47;;;;;;;;;;5106233;27;20039;-66
2024/01/08 07:44:58;;;;;;;11.65;4.72;;;;;;;;;;5122849;27;20500;-65
2024/01/08 07:47:24;;;;;;;7.68;3.55;;;;;;;;;;5101712;27;20113;-65
2024/01/08 07:49:50;;;;;;;7.65;3.38;;;;;;;;;;5113347;27;20093;-66
2024/01/08 07:52:16;;;;;;;9.20;2.92;;;;;;;;;;5102798;27;20071;-66
2024/01/08 07:54:42;;;;;;;12.07;4.32;;;;;;;;;;5102176;27;20061;-65
2024/01/08 07:57:09;;;;;;;9.27;3.67;;;;;;;;;;5105760;27;20036;-66
2024/01/08 07:59:35;;;;;;;9.15;3.70;;;;;;;;;;5100413;27;20043;-66
2024/01/08 08:02:01;;;;;;;18.40;3.58;;;;;;;;;;5112166;27;20411;-66
2024/01/08 08:04:27;;;;;;;12.55;3.63;;;;;;;;;;5116427;27;20097;-66
2024/01/08 08:06:54;;;;;;;14.45;3.55;;;;;;;;;;5103129;27;20054;-66
2024/01/08 08:09:20;;;;;;;8.02;3.00;;;;;;;;;;5101015;27;20056;-66
2024/01/08 08:11:46;;;;;;;9.18;3.10;;;;;;;;;;5102227;27;20116;-67
2024/01/08 08:14:12;;;;;;;10.10;3.50;;;;;;;;;;5125747;27;20143;-67
2024/01/08 08:16:39;;;;;;;7.05;2.90;;;;;;;;;;5126781;27;20490;-67
2024/01/08 08:19:07;;;;;;;8.50;3.03;;;;;;;;;;5129527;27;20035;-66
2024/01/08 08:21:33;;;;;;;11.15;4.05;;;;;;;;;;5106043;27;20051;-66
2024/01/08 08:24:03;;;;;;;15.35;3.28;;;;;;;;;;5103457;28;20118;-67
2024/01/08 08:26:29;;;;;;;9.82;3.85;;;;;;;;;;5123152;27;20048;-67
2024/01/08 08:28:55;;;;;;;10.90;5.32;;;;;;;;;;5099505;27;20035;-67
2024/01/08 08:31:21;;;;;;;8.45;3.05;;;;;;;;;;5117886;27;20537;-66
2024/01/08 08:33:48;;;;;;;8.48;3.53;;;;;;;;;;5121191;27;20130;-66
2024/01/08 08:36:14;;;;;;;8.10;3.40;;;;;;;;;;5122434;27;20047;-66
2024/01/08 08:38:40;;;;;;;9.45;3.45;;;;;;;;;;5100748;27;20044;-66
2024/01/08 08:41:06;;;;;;;11.23;3.40;;;;;;;;;;5118140;27;20103;-68
2024/01/08 08:43:33;;;;;;;13.63;4.28;;;;;;;;;;5103831;27;20054;-66
2024/01/08 08:46:00;;;;;;;10.00;3.10;;;;;;;;;;5119329;27;20096;-66
2024/01/08 08:48:28;;;;;;;6.65;3.15;;;;;;;;;;5121807;27;20178;-66
2024/01/08 08:50:54;;;;;;;8.93;3.30;;;;;;;;;;5118376;27;20473;-66
2024/01/08 08:53:20;;;;;;;9.82;3.67;;;;;;;;;;5127467;27;20039;-66
2024/01/08 08:55:46;;;;;;;7.57;3.20;;;;;;;;;;5109162;27;20420;-66
2024/01/08 08:58:12;;;;;;;9.40;3.33;;;;;;;;;;5102379;27;20122;-66
2024/01/08 09:00:39;;;;;;;10.20;3.33;;;;;;;;;;5104481;27;20455;-66
2024/01/08 09:03:05;;;;;;;8.25;2.80;;;;;;;;;;5104636;27;20082;-66
2024/01/08 09:05:32;;;;;;;10.00;3.30;;;;;;;;;;5123082;27;20077;-75
2024/01/08 09:07:58;;;;;;;10.43;3.00;;;;;;;;;;5099115;27;20122;-74
2024/01/08 09:10:26;;;;;;;7.60;2.80;;;;;;;;;;5103692;27;20562;-76
2024/01/08 09:12:52;;;;;;;12.60;3.70;;;;;;;;;;5105382;27;20101;-67
2024/01/08 09:15:18;;;;;;;12.25;3.20;;;;;;;;;;5094672;27;20051;-65
2024/01/08 09:17:45;;;;;;;7.60;2.72;;;;;;;;;;5099576;27;20070;-65
2024/01/08 09:20:11;;;;;;;10.55;2.58;;;;;;;;;;5103675;27;20066;-66
2024/01/08 09:22:37;;;;;;;8.00;3.00;;;;;;;;;;5120783;27;20051;-66
2024/01/08 09:25:04;;;;;;;11.18;3.00;;;;;;;;;;5100434;27;20411;-66
2024/01/08 09:27:31;;;;;;;11.13;3.05;;;;;;;;;;5105374;27;20061;-66
2024/01/08 09:29:58;;;;;;;5.78;2.10;;;;;;;;;;5109329;27;20047;-65
2024/01/08 09:32:25;;;;;;;5.43;2.35;;;;;;;;;;5092163;27;20490;-65
2024/01/08 09:34:52;;;;;;;7.68;2.38;;;;;;;;;;5125492;27;20047;-66
2024/01/08 09:37:20;;;;;;;10.43;3.05;;;;;;;;;;5110621;27;20088;-66
2024/01/08 09:39:46;;;;;;;10.65;2.65;;;;;;;;;;5099964;28;20376;-67
2024/01/08 09:42:14;;;;;;;8.48;2.97;;;;;;;;;;5088410;27;20459;-66
2024/01/08 09:44:47;;;;;;;8.57;2.42;;;;;;;;;;5098540;28;20122;-66
2024/01/08 09:47:15;;;;;;;7.18;2.47;;;;;;;;;;5101835;28;20067;-65
2024/01/08 09:49:42;;;;;;;6.57;2.13;;;;;;;;;;5119995;27;20047;-65
2024/01/08 09:52:11;;;;;;;8.68;3.50;;;;;;;;;;5122659;27;20150;-65
2024/01/08 09:54:38;;;;;;;7.38;2.47;;;;;;;;;;5117690;27;20036;-65
2024/01/08 09:57:05;;;;;;;5.13;2.33;;;;;;;;;;5121220;27;20092;-65
2024/01/08 09:59:32;;;;;;;6.82;2.35;;;;;;;;;;5125333;28;20035;-66
2024/01/08 10:01:58;;;;;;;7.68;2.35;;;;;;;;;;5122433;28;20122;-65
2024/01/08 10:04:25;;;;;;;9.32;3.17;;;;;;;;;;5103218;28;20383;-65
2024/01/08 10:07:03;;;;;;;9.23;2.67;;;;;;;;;;5101329;28;20047;-65
2024/01/08 10:09:29;;;;;;;6.53;2.75;;;;;;;;;;5121830;28;20149;-66
2024/01/08 10:11:55;;;;;;;9.68;2.33;;;;;;;;;;5104762;28;20059;-67
2024/01/08 10:14:24;;;;;;;6.05;2.42;;;;;;;;;;5125518;28;20195;-65
2024/01/08 10:16:50;;;;;;;4.95;2.05;;;;;;;;;;5119420;28;20048;-66
2024/01/08 10:19:18;;;;;;;9.05;2.67;;;;;;;;;;5125420;28;20043;-65
2024/01/08 10:21:45;;;;;;;7.80;2.30;;;;;;;;;;5101661;28;20044;-70
2024/01/08 10:24:12;;;;;;;10.38;2.65;;;;;;;;;;5104841;28;20085;-70
2024/01/08 10:26:40;;;;;;;9.45;2.75;;;;;;;;;;5104971;27;20058;-66
2024/01/08 10:29:11;;;;;;;7.65;3.05;;;;;;;;;;5123375;27;20076;-66
2024/01/08 10:31:38;;;;;;;7.93;2.97;;;;;;;;;;5103632;28;20063;-66
2024/01/08 10:34:04;;;;;;;5.72;2.42;;;;;;;;;;5101650;27;20403;-65
2024/01/08 10:36:35;;;;;;;5.93;2.53;;;;;;;;;;5103702;28;20329;-66
2024/01/08 10:39:03;;;;;;;7.22;2.42;;;;;;;;;;5088565;28;20544;-66
2024/01/08 10:41:29;;;;;;;6.22;2.70;;;;;;;;;;5101813;28;20095;-66
2024/01/08 10:43:55;;;;;;;7.95;2.50;;;;;;;;;;5092655;28;21481;-65
2024/01/08 10:46:27;;;;;;;6.88;2.90;;;;;;;;;;5096830;27;20067;-65
2024/01/08 10:48:53;;;;;;;6.57;2.55;;;;;;;;;;5094598;28;20036;-66
2024/01/08 10:51:20;;;;;;;5.70;2.50;;;;;;;;;;5092337;28;20139;-66
2024/01/08 10:53:47;;;;;;;6.80;2.70;;;;;;;;;;5103856;27;20078;-65
2024/01/08 10:56:16;;;;;;;7.93;2.60;;;;;;;;;;5092017;28;20054;-66
2024/01/08 10:58:54;;;;;;;6.25;2.35;;;;;;;;;;5095145;28;20134;-66
2024/01/08 11:01:21;;;;;;;6.10;3.03;;;;;;;;;;5100370;28;20084;-66
2024/01/08 11:03:47;;;;;;;7.72;3.05;;;;;;;;;;5097139;28;20115;-65
2024/01/08 11:06:14;;;;;;;5.40;2.70;;;;;;;;;;5103822;27;20042;-67
2024/01/08 11:08:42;;;;;;;5.82;2.50;;;;;;;;;;5108364;28;20135;-66
2024/01/08 11:11:09;;;;;;;8.68;2.90;;;;;;;;;;5106844;28;20043;-66
2024/01/08 11:13:36;;;;;;;6.43;2.35;;;;;;;;;;5100683;28;20047;-66
2024/01/08 11:16:06;;;;;;;5.07;2.33;;;;;;;;;;5104750;28;20070;-66
2024/01/08 11:18:33;;;;;;;6.28;2.83;;;;;;;;;;5101173;28;20050;-66
2024/01/08 11:21:01;;;;;;;9.07;2.65;;;;;;;;;;5092693;28;20048;-66
2024/01/08 11:23:32;;;;;;;6.80;3.00;;;;;;;;;;5103946;28;20063;-66
2024/01/08 11:25:58;;;;;;;6.75;2.67;;;;;;;;;;5106301;27;20527;-66
2024/01/08 11:28:25;;;;;;;7.47;2.92;;;;;;;;;;5096869;28;20125;-73
2024/01/08 11:30:58;;;;;;;7.28;2.55;;;;;;;;;;5098108;27;20051;-66
2024/01/08 11:33:24;;;;;;;6.13;2.80;;;;;;;;;;5100104;27;20159;-66
2024/01/08 11:35:59;;;;;;;5.38;2.95;;;;;;;;;;5116447;27;20038;-66
2024/01/08 11:38:27;;;;;;;4.78;2.60;;;;;;;;;;5117976;27;20538;-66
2024/01/08 11:40:55;;;;;;;7.45;3.30;;;;;;;;;;5093141;27;20040;-66
2024/01/08 11:43:21;;;;;;;5.22;2.55;;;;;;;;;;5102639;27;20046;-66
2024/01/08 11:45:48;;;;;;;7.38;2.63;;;;;;;;;;5099161;27;20123;-66
2024/01/08 11:48:14;;;;;;;6.35;3.33;;;;;;;;;;5121077;27;20178;-66
2024/01/08 11:50:42;;;;;;;7.07;2.85;;;;;;;;;;5122434;27;20049;-66
2024/01/08 11:53:10;;;;;;;5.15;2.25;;;;;;;;;;5120502;27;20065;-66
2024/01/08 11:55:36;;;;;;;5.88;2.42;;;;;;;;;;5123590;27;20723;-66
2024/01/08 11:58:03;;;;;;;8.73;3.92;;;;;;;;;;5120183;27;20042;-66
2024/01/08 12:00:30;;;;;;;6.53;2.72;;;;;;;;;;5100656;27;20432;-67
2024/01/08 12:03:03;;;;;;;6.82;2.47;;;;;;;;;;5104162;27;20051;-67
2024/01/08 12:05:29;;;;;;;6.68;2.20;;;;;;;;;;5103552;27;20491;-66
2024/01/08 12:07:55;;;;;;;5.47;2.50;;;;;;;;;;5103619;27;20087;-66
2024/01/08 12:10:22;;;;;;;6.80;2.58;;;;;;;;;;5120536;27;20036;-67
2024/01/08 12:12:48;;;;;;;9.00;2.85;;;;;;;;;;5122486;27;20431;-66
2024/01/08 12:15:16;;;;;;;7.95;2.58;;;;;;;;;;5116780;27;20049;-66
2024/01/08 12:17:42;;;;;;;5.57;2.50;;;;;;;;;;5100200;27;20040;-66
2024/01/08 12:20:08;;;;;;;4.95;2.28;;;;;;;;;;5117579;27;20047;-66
2024/01/08 12:22:35;;;;;;;6.07;2.30;;;;;;;;;;5101696;27;20093;-66
2024/01/08 12:25:01;;;;;;;6.90;2.45;;;;;;;;;;5118255;27;20628;-66
2024/01/08 12:27:31;;;;;;;6.05;2.40;;;;;;;;;;5103247;27;20039;-66
2024/01/08 12:29:57;;;;;;;5.30;2.20;;;;;;;;;;5102044;27;20074;-67
2024/01/08 12:32:24;;;;;;;5.88;2.33;;;;;;;;;;5122737;27;20484;-66
2024/01/08 12:34:51;;;;;;;5.90;2.28;;;;;;;;;;5124290;27;20096;-66
2024/01/08 12:37:18;;;;;;;9.00;2.63;;;;;;;;;;5125345;27;20062;-66
2024/01/08 12:39:44;;;;;;;6.88;2.80;;;;;;;;;;5121511;27;20067;-66
2024/01/08 12:42:11;;;;;;;5.93;2.13;;;;;;;;;;5122957;27;20080;-67
2024/01/08 12:44:38;;;;;;;11.50;2.42;;;;;;;;;;5125277;27;20089;-66
2024/01/08 12:47:05;;;;;;;9.50;2.70;;;;;;;;;;5101899;27;20491;-66
2024/01/08 12:49:32;;;;;;;6.13;2.13;;;;;;;;;;5117271;27;20118;-66
2024/01/08 12:52:00;;;;;;;7.85;2.03;;;;;;;;;;5101440;27;20043;-66
2024/01/08 12:54:28;;;;;;;6.88;2.42;;;;;;;;;;5102712;27;20118;-67
2024/01/08 12:56:54;;;;;;;7.13;2.45;;;;;;;;;;5100788;27;20047;-66
2024/01/08 12:59:22;;;;;;;5.00;2.00;;;;;;;;;;5123520;27;20482;-67
2024/01/08 13:01:48;;;;;;;8.88;2.70;;;;;;;;;;5106682;27;20560;-67
2024/01/08 13:04:15;;;;;;;8.55;2.20;;;;;;;;;;5126922;27;20075;-66
2024/01/08 13:06:43;;;;;;;5.75;2.17;;;;;;;;;;5117952;27;20401;-67
2024/01/08 13:09:09;;;;;;;7.00;2.60;;;;;;;;;;5120707;27;20047;-67
2024/01/08 13:11:37;;;;;;;5.55;2.10;;;;;;;;;;5118043;27;20044;-66
2024/01/08 13:14:04;;;;;;;6.30;2.15;;;;;;;;;;5100753;27;20512;-66
2024/01/08 13:16:30;;;;;;;5.57;2.20;;;;;;;;;;5104678;27;20051;-66
2024/01/08 13:18:57;;;;;;;8.55;2.50;;;;;;;;;;5102637;27;20637;-66
2024/01/08 13:21:24;;;;;;;7.40;2.20;;;;;;;;;;5102929;27;20054;-67
2024/01/08 13:23:50;;;;;;;6.82;2.15;;;;;;;;;;5102454;27;20044;-66
2024/01/08 13:26:17;;;;;;;7.68;2.30;;;;;;;;;;5105493;27;20054;-67
2024/01/08 13:28:45;;;;;;;7.28;2.35;;;;;;;;;;5121048;27;20035;-68
2024/01/08 13:31:11;;;;;;;6.22;2.95;;;;;;;;;;5121259;27;20055;-66
2024/01/08 13:33:38;;;;;;;9.73;3.10;;;;;;;;;;5100388;27;20123;-66
2024/01/08 13:36:04;;;;;;;6.25;2.63;;;;;;;;;;5097016;27;20500;-66
2024/01/08 13:38:31;;;;;;;5.32;2.38;;;;;;;;;;5093672;28;20043;-66
2024/01/08 13:40:58;;;;;;;6.15;2.47;;;;;;;;;;5096389;27;20054;-66
2024/01/08 13:43:25;;;;;;;6.97;2.72;;;;;;;;;;5103834;27;20119;-66
2024/01/08 13:45:53;;;;;;;7.70;3.05;;;;;;;;;;5106281;27;20053;-66
2024/01/08 13:48:19;;;;;;;9.48;2.90;;;;;;;;;;5097305;28;20047;-66
2024/01/08 13:50:46;;;;;;;6.13;2.50;;;;;;;;;;5115953;27;20050;-66
2024/01/08 13:53:12;;;;;;;6.35;2.60;;;;;;;;;;5115765;27;20426;-66
2024/01/08 13:55:38;;;;;;;5.57;2.40;;;;;;;;;;5098239;28;20126;-66
2024/01/08 13:58:05;;;;;;;4.20;1.80;;;;;;;;;;5118679;27;20118;-66
2024/01/08 14:00:32;;;;;;;9.57;2.80;;;;;;;;;;5121223;28;20069;-66
2024/01/08 14:02:58;;;;;;;7.72;3.00;;;;;;;;;;5117810;27;20079;-67
2024/01/08 14:05:25;;;;;;;4.50;2.25;;;;;;;;;;5118331;27;20498;-66
2024/01/08 14:07:52;;;;;;;5.70;3.10;;;;;;;;;;5104449;28;20490;-66
2024/01/08 14:10:18;;;;;;;7.00;3.22;;;;;;;;;;5120349;28;20130;-66
2024/01/08 14:12:44;;;;;;;8.88;2.88;;;;;;;;;;5098676;28;20047;-66
2024/01/08 14:15:11;;;;;;;6.90;2.67;;;;;;;;;;5100219;28;20484;-66
2024/01/08 14:17:38;;;;;;;6.05;2.88;;;;;;;;;;5100634;28;20043;-66
2024/01/08 14:20:05;;;;;;;7.60;2.92;;;;;;;;;;5100002;28;20066;-66
2024/01/08 14:22:31;;;;;;;5.32;2.53;;;;;;;;;;5119702;27;20104;-65
2024/01/08 14:24:58;;;;;;;8.25;2.83;;;;;;;;;;5117133;28;20035;-65
2024/01/08 14:27:24;;;;;;;8.98;3.35;;;;;;;;;;5121029;28;20043;-65
2024/01/08 14:29:50;;;;;;;6.00;2.63;;;;;;;;;;5099265;28;20139;-66
2024/01/08 14:32:17;;;;;;;6.38;2.85;;;;;;;;;;5121985;28;20035;-65
2024/01/08 14:34:43;;;;;;;8.02;3.17;;;;;;;;;;5098226;28;20039;-65